createdAt,value
2022-12-06T00:01:14.177Z,101961.81
2022-12-06T00:03:44.869Z,101964.47
2022-12-06T00:06:14.576Z,101959.19
2022-12-06T00:08:41.807Z,101962.66
2022-12-06T00:11:10.125Z,101955.81
2022-12-06T00:13:37.457Z,101957.63
2022-12-06T00:16:05.945Z,101954.16
2022-12-06T00:18:34.417Z,101958.47
2022-12-06T00:21:07.968Z,101955.81
2022-12-06T00:23:36.422Z,101950.41
2022-12-06T00:26:03.752Z,101947.78
2022-12-06T00:28:30.540Z,101956.78
2022-12-06T00:30:58.725Z,101953.19
2022-12-06T00:33:25.579Z,101952.22
2022-12-06T00:35:56.033Z,101951.25
2022-12-06T00:38:24.605Z,101954.59
2022-12-06T00:40:57.894Z,101944.03
2022-12-06T00:43:31.758Z,101948.47
2022-12-06T00:45:58.665Z,101949.47
2022-12-06T00:48:25.516Z,101952.09
2022-12-06T00:50:52.475Z,101948.47
2022-12-06T00:53:19.295Z,101947.63
2022-12-06T00:55:47.872Z,101945.97
2022-12-06T00:58:14.780Z,101951.09
2022-12-06T01:00:42.195Z,101950.97
2022-12-06T01:03:09.560Z,101953.50
2022-12-06T01:05:40.517Z,101955.88
2022-12-06T01:08:07.438Z,101954.91
2022-12-06T01:10:34.440Z,101954.78
2022-12-06T01:13:03.061Z,101952.00
2022-12-06T01:15:29.777Z,101951.03
2022-12-06T01:17:56.403Z,101949.25
2022-12-06T01:20:23.115Z,101953.69
2022-12-06T01:22:49.779Z,101952.72
2022-12-06T01:25:16.524Z,101959.69
2022-12-06T01:27:43.299Z,101955.38
2022-12-06T01:30:11.970Z,101960.66
2022-12-06T01:32:38.827Z,101965.22
2022-12-06T01:35:06.569Z,101962.56
2022-12-06T01:37:33.363Z,101961.72
2022-12-06T01:40:00.209Z,101962.56
2022-12-06T01:42:27.108Z,101958.13
2022-12-06T01:44:55.741Z,101957.16
2022-12-06T01:47:26.432Z,101952.00
2022-12-06T01:49:57.317Z,101957.28
2022-12-06T01:52:28.312Z,101951.28
2022-12-06T01:54:56.099Z,101952.41
2022-12-06T01:57:22.942Z,101941.00
2022-12-06T01:59:49.568Z,101940.03
2022-12-06T02:02:16.330Z,101948.09
2022-12-06T02:04:44.684Z,101946.28
2022-12-06T02:07:12.023Z,101944.75
2022-12-06T02:09:39.965Z,101942.09
2022-12-06T02:12:12.625Z,101942.81
2022-12-06T02:14:39.930Z,101941.00
2022-12-06T02:17:26.427Z,101945.44
2022-12-06T02:20:07.943Z,101935.84
2022-12-06T02:22:50.803Z,101941.97
2022-12-06T02:25:43.788Z,101935.72
2022-12-06T02:28:47.962Z,101938.50
2022-12-06T02:31:18.919Z,101941.00
2022-12-06T02:33:49.944Z,101935.72
2022-12-06T02:36:22.691Z,101935.72
2022-12-06T02:38:53.531Z,101932.94
2022-12-06T02:41:24.341Z,101928.47
2022-12-06T02:43:56.058Z,101929.19
2022-12-06T02:46:33.955Z,101923.78
2022-12-06T02:49:02.580Z,101932.56
2022-12-06T02:51:31.631Z,101931.59
2022-12-06T02:54:02.860Z,101936.88
2022-12-06T02:56:32.276Z,101923.66
2022-12-06T02:58:59.042Z,101933.25
2022-12-06T03:01:30.127Z,101922.69
2022-12-06T03:04:12.343Z,101925.19
2022-12-06T03:07:04.846Z,101925.19
2022-12-06T03:09:47.573Z,101925.34
2022-12-06T03:12:21.103Z,101920.84
2022-12-06T03:14:56.053Z,101909.59
2022-12-06T03:17:32.016Z,101917.41
2022-12-06T03:20:05.109Z,101917.41
2022-12-06T03:22:39.832Z,101916.69
2022-12-06T03:25:10.166Z,101919.34
2022-12-06T03:27:41.158Z,101915.03
2022-12-06T03:30:12.734Z,101922.09
2022-12-06T03:32:44.082Z,101923.19
2022-12-06T03:35:14.418Z,101919.88
2022-12-06T03:37:44.781Z,101917.34
2022-12-06T03:40:17.968Z,101912.78
2022-12-06T03:42:45.052Z,101916.50
2022-12-06T03:45:12.910Z,101920.97
2022-12-06T03:47:55.153Z,101914.97
2022-12-06T03:50:27.505Z,101912.47
2022-12-06T03:52:54.311Z,101913.44
2022-12-06T03:55:21.175Z,101909.25
2022-12-06T03:57:47.807Z,101918.13
2022-12-06T04:00:16.612Z,101915.78
2022-12-06T04:02:43.319Z,101909.78
2022-12-06T04:05:12.037Z,101911.59
2022-12-06T04:07:38.935Z,101915.19
2022-12-06T04:10:09.296Z,101908.34
2022-12-06T04:12:54.299Z,101912.81
2022-12-06T04:15:22.885Z,101916.44
2022-12-06T04:18:08.012Z,101918.34
2022-12-06T04:20:59.300Z,101925.44
2022-12-06T04:23:26.546Z,101922.91
2022-12-06T04:25:53.162Z,101915.97
2022-12-06T04:28:38.341Z,101925.56
2022-12-06T04:31:29.030Z,101922.78
2022-12-06T04:34:14.314Z,101915.00
2022-12-06T04:37:01.203Z,101922.78
2022-12-06T04:39:28.093Z,101916.69
2022-12-06T04:42:13.235Z,101919.19
2022-12-06T04:44:40.056Z,101921.84
2022-12-06T04:47:07.083Z,101915.59
2022-12-06T04:49:33.851Z,101912.94
2022-12-06T04:52:04.047Z,101920.03
2022-12-06T04:54:31.378Z,101914.75
2022-12-06T04:56:58.274Z,101911.28
2022-12-06T04:59:25.325Z,101906.00
2022-12-06T05:01:52.111Z,101911.28
2022-12-06T05:04:19.518Z,101915.72
2022-12-06T05:06:46.334Z,101914.03
2022-12-06T05:09:14.564Z,101917.63
2022-12-06T05:11:41.554Z,101915.13
2022-12-06T05:14:08.502Z,101918.75
2022-12-06T05:16:35.249Z,101917.06
2022-12-06T05:19:02.314Z,101909.16
2022-12-06T05:21:29.012Z,101907.34
2022-12-06T05:23:56.154Z,101912.63
2022-12-06T05:26:25.945Z,101915.28
2022-12-06T05:28:54.495Z,101911.91
2022-12-06T05:31:22.173Z,101918.88
2022-12-06T05:33:49.765Z,101918.16
2022-12-06T05:36:19.050Z,101915.53
2022-12-06T05:38:51.145Z,101908.56
2022-12-06T05:41:18.925Z,101906.88
2022-12-06T05:43:47.153Z,101906.03
2022-12-06T05:46:14.481Z,101899.97
2022-12-06T05:48:41.376Z,101901.59
2022-12-06T05:51:08.029Z,101901.47
2022-12-06T05:53:34.718Z,101904.00
2022-12-06T05:56:04.962Z,101907.47
2022-12-06T05:58:32.318Z,101907.47
2022-12-06T06:01:04.803Z,101909.28
2022-12-06T06:03:31.700Z,101907.59
2022-12-06T06:06:00.083Z,101902.44
2022-12-06T06:08:27.770Z,101911.31
2022-12-06T06:10:54.717Z,101909.53
2022-12-06T06:13:21.745Z,101911.31
2022-12-06T06:15:49.793Z,101920.09
2022-12-06T06:18:18.472Z,101923.72
2022-12-06T06:20:48.905Z,101917.59
2022-12-06T06:23:15.544Z,101914.97
2022-12-06T06:25:42.365Z,101915.94
2022-12-06T06:28:09.060Z,101913.28
2022-12-06T06:30:35.730Z,101916.88
2022-12-06T06:33:02.523Z,101919.66
2022-12-06T06:35:30.536Z,101916.16
2022-12-06T06:37:57.253Z,101912.56
2022-12-06T06:40:23.900Z,101913.53
2022-12-06T06:42:51.277Z,101919.66
2022-12-06T06:45:18.188Z,101918.69
2022-12-06T06:47:44.903Z,101917.84
2022-12-06T06:50:12.102Z,101915.94
2022-12-06T06:52:40.165Z,101917.72
2022-12-06T06:55:07.618Z,101911.59
2022-12-06T06:57:36.132Z,101914.38
2022-12-06T07:00:04.902Z,101917.00
2022-12-06T07:02:31.682Z,101919.66
2022-12-06T07:04:58.348Z,101917.00
2022-12-06T07:07:25.169Z,101917.84
2022-12-06T07:09:53.268Z,101911.72
2022-12-06T07:12:19.960Z,101917.13
2022-12-06T07:14:46.882Z,101915.59
2022-12-06T07:17:13.706Z,101920.16
2022-12-06T07:19:40.509Z,101909.59
2022-12-06T07:22:07.134Z,101911.28
2022-12-06T07:24:41.278Z,101909.59
2022-12-06T07:27:10.286Z,101907.94
2022-12-06T07:29:36.973Z,101913.22
2022-12-06T07:32:03.825Z,101913.22
2022-12-06T07:34:33.829Z,101920.28
2022-12-06T07:37:00.443Z,101915.00
2022-12-06T07:39:29.216Z,101908.91
2022-12-06T07:42:14.314Z,101913.34
2022-12-06T07:45:02.390Z,101912.38
2022-12-06T07:47:33.891Z,101912.50
2022-12-06T07:50:01.140Z,101916.81
2022-12-06T07:52:31.489Z,101913.34
2022-12-06T07:54:58.338Z,101915.13
2022-12-06T07:57:25.134Z,101916.69
2022-12-06T07:59:53.198Z,101919.34
2022-12-06T08:02:21.536Z,101920.03
2022-12-06T08:04:48.668Z,101925.19
2022-12-06T08:07:16.015Z,101915.59
2022-12-06T08:09:42.704Z,101919.91
2022-12-06T08:12:09.778Z,101926.00
2022-12-06T08:14:36.926Z,101915.31
2022-12-06T08:17:05.605Z,101918.69
2022-12-06T08:19:32.587Z,101928.16
2022-12-06T08:21:59.404Z,101927.16
2022-12-06T08:24:26.037Z,101922.88
2022-12-06T08:26:53.203Z,101930.66
2022-12-06T08:29:20.376Z,101932.44
2022-12-06T08:31:47.209Z,101931.63
2022-12-06T08:34:16.279Z,101932.59
2022-12-06T08:36:43.346Z,101930.81
2022-12-06T08:39:11.594Z,101929.97
2022-12-06T08:41:58.226Z,101933.56
2022-12-06T08:44:27.239Z,101939.09
2022-12-06T08:46:55.087Z,101935.75
2022-12-06T08:49:24.166Z,101938.41
2022-12-06T08:51:51.302Z,101943.94
2022-12-06T08:54:20.131Z,101932.53
2022-12-06T08:56:46.892Z,101931.81
2022-12-06T08:59:14.160Z,101932.66
2022-12-06T09:01:42.297Z,101947.81
2022-12-06T09:04:11.395Z,101938.88
2022-12-06T09:06:41.823Z,101944.16
2022-12-06T09:09:10.630Z,101945.97
2022-12-06T09:11:38.217Z,101945.16
2022-12-06T09:14:05.188Z,101946.13
2022-12-06T09:16:31.943Z,101950.69
2022-12-06T09:18:59.033Z,101949.97
2022-12-06T09:21:30.360Z,101947.44
2022-12-06T09:23:58.670Z,101957.31
2022-12-06T09:26:26.506Z,101948.69
2022-12-06T09:28:55.329Z,101946.16
2022-12-06T09:31:22.747Z,101945.31
2022-12-06T09:33:49.476Z,101949.63
2022-12-06T09:36:19.897Z,101951.44
2022-12-06T09:38:50.519Z,101953.00
2022-12-06T09:41:32.398Z,101955.63
2022-12-06T09:44:16.553Z,101951.19
2022-12-06T09:46:58.155Z,101948.69
2022-12-06T09:49:30.489Z,101949.53
2022-12-06T09:52:25.959Z,101951.06
2022-12-06T09:55:06.302Z,101946.63
2022-12-06T09:57:42.293Z,101951.75
2022-12-06T10:00:15.419Z,101947.19
2022-12-06T10:02:59.816Z,101945.41
2022-12-06T10:05:38.978Z,101940.97
2022-12-06T10:08:19.585Z,101931.25
2022-12-06T10:10:57.016Z,101931.25
2022-12-06T10:13:41.910Z,101926.69
2022-12-06T10:16:19.221Z,101924.03
2022-12-06T10:18:59.526Z,101916.81
2022-12-06T10:21:37.863Z,101922.69
2022-12-06T10:24:16.177Z,101921.56
2022-12-06T10:26:49.333Z,101921.31
2022-12-06T10:29:28.889Z,101921.09
2022-12-06T10:31:58.880Z,101928.72
2022-12-06T10:34:44.332Z,101923.31
2022-12-06T10:37:24.009Z,101929.31
2022-12-06T10:39:55.499Z,101923.03
2022-12-06T10:42:33.985Z,101916.69
2022-12-06T10:45:34.325Z,101923.50
2022-12-06T10:48:07.388Z,101921.72
2022-12-06T10:50:39.641Z,101924.19
2022-12-06T10:53:12.706Z,101925.88
2022-12-06T10:55:44.548Z,101924.78
2022-12-06T10:58:19.031Z,101921.19
2022-12-06T11:00:55.173Z,101921.19
2022-12-06T11:03:28.825Z,101913.97
2022-12-06T11:06:00.208Z,101918.25
2022-12-06T11:08:31.444Z,101913.69
2022-12-06T11:11:00.684Z,101897.00
2022-12-06T11:13:35.857Z,101902.03
2022-12-06T11:16:09.961Z,101909.84
2022-12-06T11:18:38.124Z,101893.84
2022-12-06T11:21:18.059Z,101899.84
2022-12-06T11:23:51.031Z,101898.88
2022-12-06T11:26:24.095Z,101899.59
2022-12-06T11:28:55.629Z,101895.81
2022-12-06T11:31:28.093Z,101884.28
2022-12-06T11:33:55.158Z,101890.16
2022-12-06T11:36:24.364Z,101892.50
2022-12-06T11:38:51.603Z,101886.13
2022-12-06T11:41:23.432Z,101882.38
2022-12-06T11:43:51.201Z,101888.25
2022-12-06T11:46:18.190Z,101879.06
2022-12-06T11:48:47.035Z,101886.47
2022-12-06T11:51:18.385Z,101884.50
2022-12-06T11:53:56.377Z,101878.00
2022-12-06T11:56:26.549Z,101883.84
2022-12-06T11:59:04.119Z,101879.13
2022-12-06T12:01:39.710Z,101871.88
2022-12-06T12:04:26.597Z,101868.97
2022-12-06T12:06:58.336Z,101860.06
2022-12-06T12:09:29.269Z,101869.53
2022-12-06T12:12:01.918Z,101865.78
2022-12-06T12:14:37.002Z,101865.53
2022-12-06T12:17:15.487Z,101871.34
2022-12-06T12:19:52.638Z,101866.66
2022-12-06T12:22:30.784Z,101866.34
2022-12-06T12:27:48.072Z,101863.44
2022-12-06T12:30:36.614Z,101858.88
2022-12-06T12:33:24.515Z,101863.03
2022-12-06T12:35:56.059Z,101865.53
2022-12-06T12:38:32.458Z,101861.09
2022-12-06T12:41:02.185Z,101852.84
2022-12-06T12:43:31.680Z,101858.97
2022-12-06T12:46:22.111Z,101855.38
2022-12-06T12:48:51.054Z,101851.75
2022-12-06T12:51:29.324Z,101851.63
2022-12-06T12:53:59.069Z,101841.75
2022-12-06T12:56:26.189Z,101839.78
2022-12-06T12:58:57.479Z,101843.25
2022-12-06T13:01:38.923Z,101835.19
2022-12-06T13:04:15.506Z,101841.19
2022-12-06T13:06:48.068Z,101833.13
2022-12-06T13:09:21.469Z,101826.81
2022-12-06T13:11:53.801Z,101828.50
2022-12-06T13:14:25.226Z,101823.78
2022-12-06T13:16:58.606Z,101829.91
2022-12-06T13:19:32.389Z,101815.72
2022-12-06T13:22:03.706Z,101816.69
2022-12-06T13:24:32.876Z,101814.88
2022-12-06T13:27:02.513Z,101812.22
2022-12-06T13:29:35.704Z,101817.34
2022-12-06T13:32:08.323Z,101817.50
2022-12-06T13:34:39.124Z,101815.72
2022-12-06T13:37:28.972Z,101808.75
2022-12-06T13:39:55.479Z,101813.06
2022-12-06T13:42:40.595Z,101808.56
2022-12-06T13:45:37.337Z,101808.44
2022-12-06T13:48:04.181Z,101807.75
2022-12-06T13:50:53.046Z,101806.94
2022-12-06T13:53:22.564Z,101806.75
2022-12-06T13:55:57.596Z,101805.78
2022-12-06T13:58:42.669Z,101805.13
2022-12-06T14:01:41.218Z,101804.13
2022-12-06T14:07:01.567Z,101804.81
2022-12-06T14:09:39.860Z,101803.00
2022-12-06T14:12:08.676Z,101792.56
2022-12-06T14:14:35.509Z,101795.22
2022-12-06T14:17:05.024Z,101800.38
2022-12-06T14:19:40.688Z,101800.22
2022-12-06T14:22:18.566Z,101800.22
2022-12-06T14:24:56.737Z,101794.09
2022-12-06T14:27:25.736Z,101798.69
2022-12-06T14:30:05.104Z,101790.06
2022-12-06T14:32:36.468Z,101791.06
2022-12-06T14:35:05.615Z,101792.03
2022-12-06T14:37:32.319Z,101791.19
2022-12-06T14:40:11.699Z,101785.06
2022-12-06T14:43:02.293Z,101787.72
2022-12-06T14:45:31.349Z,101775.44
2022-12-06T14:48:03.278Z,101779.06
2022-12-06T14:50:33.184Z,101769.47
2022-12-06T14:53:05.242Z,101771.25
2022-12-06T14:55:35.469Z,101774.06
2022-12-06T14:58:04.471Z,101767.94
2022-12-06T15:00:36.565Z,101762.78
2022-12-06T15:03:23.777Z,101765.56
2022-12-06T15:06:08.109Z,101768.09
2022-12-06T15:08:37.365Z,101770.88
2022-12-06T15:11:40.666Z,101771.84
2022-12-06T15:14:13.206Z,101766.00
2022-12-06T15:16:40.314Z,101768.78
2022-12-06T15:19:11.831Z,101767.13
2022-12-06T15:21:38.489Z,101770.59
2022-12-06T15:24:16.254Z,101762.78
2022-12-06T15:26:44.296Z,101764.59
2022-12-06T15:29:10.945Z,101765.44
2022-12-06T15:31:40.559Z,101764.59
2022-12-06T15:34:23.354Z,101763.94
2022-12-06T15:37:03.693Z,101772.00
2022-12-06T15:39:37.549Z,101771.28
2022-12-06T15:42:15.886Z,101763.34
2022-12-06T15:44:48.637Z,101759.88
2022-12-06T15:47:16.501Z,101764.34
2022-12-06T15:49:43.804Z,101758.38
2022-12-06T15:52:16.080Z,101751.41
2022-12-06T15:54:42.920Z,101754.88
2022-12-06T15:57:11.539Z,101761.16
2022-12-06T15:59:38.210Z,101760.31
2022-12-06T16:02:14.090Z,101755.03
2022-12-06T16:04:41.524Z,101759.47
2022-12-06T16:07:12.643Z,101763.94
2022-12-06T16:09:39.332Z,101754.31
2022-12-06T16:12:06.554Z,101754.31
2022-12-06T16:14:35.499Z,101752.50
2022-12-06T16:17:02.084Z,101754.44
2022-12-06T16:19:48.692Z,101754.63
2022-12-06T16:22:15.502Z,101749.47
2022-12-06T16:24:42.225Z,101759.19
2022-12-06T16:27:08.833Z,101751.28
2022-12-06T16:29:36.863Z,101752.94
2022-12-06T16:32:03.522Z,101753.78
2022-12-06T16:34:30.362Z,101759.91
2022-12-06T16:36:59.739Z,101758.91
2022-12-06T16:39:31.924Z,101751.81
2022-12-06T16:41:58.917Z,101754.44
2022-12-06T16:44:26.079Z,101749.16
2022-12-06T16:46:54.349Z,101751.97
2022-12-06T16:49:45.293Z,101751.13
2022-12-06T16:52:09.731Z,101747.78
2022-12-06T16:54:38.897Z,101738.19
2022-12-06T16:57:05.667Z,101737.34
2022-12-06T16:59:32.415Z,101748.06
2022-12-06T17:02:02.461Z,101750.88
2022-12-06T17:04:31.527Z,101744.56
2022-12-06T17:06:58.474Z,101735.81
2022-12-06T17:09:25.162Z,101738.31
2022-12-06T17:12:04.335Z,101735.66
2022-12-06T17:14:30.956Z,101734.00
2022-12-06T17:17:00.203Z,101732.19
2022-12-06T17:19:31.003Z,101735.66
2022-12-06T17:21:58.252Z,101729.41
2022-12-06T17:24:28.210Z,101722.31
2022-12-06T17:26:55.805Z,101726.78
2022-12-06T17:29:23.727Z,101727.59
2022-12-06T17:31:51.463Z,101724.97
2022-12-06T17:34:20.007Z,101721.47
2022-12-06T17:36:49.197Z,101724.13
2022-12-06T17:39:18.529Z,101724.13
2022-12-06T17:42:03.714Z,101718.00
2022-12-06T17:44:30.673Z,101718.97
2022-12-06T17:46:57.426Z,101712.19
2022-12-06T17:49:25.748Z,101714.94
2022-12-06T17:51:54.397Z,101709.78
2022-12-06T17:54:21.458Z,101708.13
2022-12-06T17:56:49.811Z,101707.59
2022-12-06T17:59:19.206Z,101711.34
2022-12-06T18:04:33.369Z,101714.13
2022-12-06T18:07:01.481Z,101717.88
2022-12-06T18:09:28.189Z,101721.50
2022-12-06T18:11:56.805Z,101711.91
2022-12-06T18:14:23.486Z,101716.34
2022-12-06T18:16:50.360Z,101720.78
2022-12-06T18:19:18.635Z,101716.34
2022-12-06T18:21:46.052Z,101712.88
2022-12-06T18:24:25.840Z,101710.22
2022-12-06T18:26:55.751Z,101705.06
2022-12-06T18:29:24.268Z,101706.03
2022-12-06T18:31:51.829Z,101699.13
2022-12-06T18:34:19.410Z,101696.72
2022-12-06T18:36:46.722Z,101702.16
2022-12-06T18:39:16.703Z,101697.16
2022-12-06T18:41:44.252Z,101707.03
2022-12-06T18:44:11.746Z,101705.34
2022-12-06T18:46:39.176Z,101697.72
2022-12-06T18:49:06.633Z,101693.41
2022-12-06T18:51:35.587Z,101699.78
2022-12-06T18:54:05.147Z,101701.72
2022-12-06T18:56:35.225Z,101702.69
2022-12-06T18:59:04.015Z,101709.94
2022-12-06T19:01:33.489Z,101705.63
2022-12-06T19:04:05.417Z,101709.13
2022-12-06T19:06:33.563Z,101704.94
2022-12-06T19:09:02.940Z,101705.75
2022-12-06T19:11:29.675Z,101700.63
2022-12-06T19:13:59.521Z,101697.13
2022-12-06T19:16:28.169Z,101687.41
2022-12-06T19:18:58.983Z,101694.50
2022-12-06T19:21:26.477Z,101690.22
2022-12-06T19:23:54.401Z,101699.78
2022-12-06T19:26:21.321Z,101696.16
2022-12-06T19:28:48.182Z,101706.72
2022-12-06T19:31:16.662Z,101696.16
2022-12-06T19:33:46.270Z,101695.31
2022-12-06T19:36:15.388Z,101699.94
2022-12-06T19:38:42.531Z,101696.59
2022-12-06T19:41:12.713Z,101707.28
2022-12-06T19:43:58.331Z,101702.97
2022-12-06T19:46:30.197Z,101710.91
2022-12-06T19:49:01.147Z,101702.13
2022-12-06T19:51:29.023Z,101703.94
2022-12-06T19:53:56.176Z,101698.66
2022-12-06T19:56:22.815Z,101699.38
2022-12-06T19:58:49.499Z,101702.84
2022-12-06T20:01:18.212Z,101701.16
2022-12-06T20:03:47.204Z,101708.25
2022-12-06T20:06:18.230Z,101707.41
2022-12-06T20:08:46.097Z,101708.25
2022-12-06T20:11:33.588Z,101707.28
2022-12-06T20:14:00.853Z,101702.97
2022-12-06T20:16:27.563Z,101706.59
2022-12-06T20:18:55.542Z,101707.41
2022-12-06T20:21:23.272Z,101701.47
2022-12-06T20:23:50.339Z,101704.09
2022-12-06T20:26:17.678Z,101706.75
2022-12-06T20:28:45.435Z,101711.03
2022-12-06T20:31:13.032Z,101705.75
2022-12-06T20:33:39.800Z,101708.25
2022-12-06T20:36:11.101Z,101707.28
2022-12-06T20:38:38.006Z,101706.44
2022-12-06T20:41:09.202Z,101705.63
2022-12-06T20:43:36.465Z,101698.53
2022-12-06T20:46:08.684Z,101699.38
2022-12-06T20:48:40.015Z,101698.41
2022-12-06T20:51:07.963Z,101703.69
2022-12-06T20:53:36.556Z,101701.03
2022-12-06T20:56:04.004Z,101699.22
2022-12-06T20:58:31.034Z,101704.50
2022-12-06T21:00:58.589Z,101701.03
2022-12-06T21:03:26.001Z,101698.41
2022-12-06T21:05:58.322Z,101701.03
2022-12-06T21:08:25.110Z,101695.88
2022-12-06T21:11:21.735Z,101699.38
2022-12-06T21:13:41.625Z,101684.47
2022-12-06T21:16:11.232Z,101685.63
2022-12-06T21:18:37.888Z,101691.72
2022-12-06T21:21:04.676Z,101693.38
2022-12-06T21:23:31.875Z,101681.16
2022-12-06T21:26:03.609Z,101685.44
2022-12-06T21:28:30.328Z,101688.25
2022-12-06T21:30:57.452Z,101687.41
2022-12-06T21:33:25.635Z,101683.22
2022-12-06T21:35:53.174Z,101692.00
2022-12-06T21:38:21.320Z,101695.59
2022-12-06T21:40:53.012Z,101692.97
2022-12-06T21:43:22.754Z,101687.97
2022-12-06T21:45:50.106Z,101693.25
2022-12-06T21:48:17.107Z,101691.72
2022-12-06T21:50:43.828Z,101687.25
2022-12-06T21:53:10.841Z,101696.03
2022-12-06T21:55:38.121Z,101691.00
2022-12-06T21:58:04.758Z,101694.59
2022-12-06T22:00:33.048Z,101696.41
2022-12-06T22:02:59.682Z,101702.69
2022-12-06T22:05:26.424Z,101695.75
2022-12-06T22:07:53.293Z,101696.56
2022-12-06T22:10:20.038Z,101694.06
2022-12-06T22:12:47.165Z,101686.28
2022-12-06T22:15:13.861Z,101698.63
2022-12-06T22:17:41.871Z,101683.75
2022-12-06T22:20:08.923Z,101697.94
2022-12-06T22:22:35.646Z,101691.13
2022-12-06T22:25:03.064Z,101695.72
2022-12-06T22:27:30.123Z,101694.88
2022-12-06T22:29:57.040Z,101688.88
2022-12-06T22:32:23.761Z,101692.53
2022-12-06T22:34:51.906Z,101695.28
2022-12-06T22:37:18.582Z,101685.81
2022-12-06T22:39:45.366Z,101694.59
2022-12-06T22:42:12.020Z,101690.56
2022-12-06T22:44:38.745Z,101694.28
2022-12-06T22:47:05.479Z,101696.09
2022-12-06T22:49:32.265Z,101699.81
2022-12-06T22:52:00.414Z,101691.22
2022-12-06T22:54:27.417Z,101693.88
2022-12-06T22:56:54.139Z,101696.63
2022-12-06T22:59:22.111Z,101696.75
2022-12-06T23:01:48.747Z,101690.78
2022-12-06T23:04:16.089Z,101699.69
2022-12-06T23:06:42.830Z,101704.13
2022-12-06T23:09:14.495Z,101701.63
2022-12-06T23:11:41.223Z,101697.44
2022-12-06T23:14:12.374Z,101695.75
2022-12-06T23:16:39.177Z,101688.97
2022-12-06T23:19:06.035Z,101703.84
2022-12-06T23:21:34.908Z,101698.69
2022-12-06T23:24:05.002Z,101707.44
2022-12-06T23:26:35.404Z,101699.53
2022-12-06T23:29:02.565Z,101696.88
2022-12-06T23:31:31.878Z,101692.56
2022-12-06T23:34:05.909Z,101698.69
2022-12-06T23:36:34.370Z,101703.13
2022-12-06T23:39:01.559Z,101708.41
2022-12-06T23:41:30.499Z,101715.59
2022-12-06T23:43:59.250Z,101708.66
2022-12-06T23:46:27.711Z,101718.25
2022-12-06T23:48:54.731Z,101706.84
2022-12-06T23:51:26.475Z,101705.06
2022-12-06T23:53:56.930Z,101700.59
2022-12-06T23:56:24.625Z,101703.25
2022-12-06T23:58:51.472Z,101695.34
